Terminal Aerodrome Forecast
Issued by NWS

Home | Current Version | Previous Version | Text Only | Print | Product List | Glossary On
Versions: 1 2 3 4 5 6 7 8 9 10 11 12 13 14 15 16 17
000
FTUS43 KICT 161700
TAFHUT
TAF
KHUT 161737Z 1618/1718 22020G30KT P6SM SCT250
     FM162100 25016G23KT P6SM BKN250
     FM170300 06006KT P6SM BKN250
     FM170700 03012KT P6SM BKN060
     FM171500 03009KT P6SM VCSH BKN050=

USA.gov is the U.S. government's official web portal to all federal, state and local government web resources and services.